sensor_id;sensor_type;location;lat;lon;timestamp;P1;durP1;ratioP1;P2;durP2;ratioP2
12597;SDS011;6364;53.590;9.956;2022-11-21T00:00:18;60.28;;;29.63;;
12597;SDS011;6364;53.590;9.956;2022-11-21T00:02:43;61.17;;;30.42;;
12597;SDS011;6364;53.590;9.956;2022-11-21T00:05:08;56.88;;;30.40;;
12597;SDS011;6364;53.590;9.956;2022-11-21T00:07:34;61.55;;;30.58;;
12597;SDS011;6364;53.590;9.956;2022-11-21T00:09:59;58.17;;;29.98;;
12597;SDS011;6364;53.590;9.956;2022-11-21T00:12:24;59.03;;;30.42;;
12597;SDS011;6364;53.590;9.956;2022-11-21T00:14:50;61.47;;;30.33;;
12597;SDS011;6364;53.590;9.956;2022-11-21T00:17:15;58.17;;;30.23;;
12597;SDS011;6364;53.590;9.956;2022-11-21T00:19:41;60.45;;;29.58;;
12597;SDS011;6364;53.590;9.956;2022-11-21T00:22:06;59.88;;;29.52;;
12597;SDS011;6364;53.590;9.956;2022-11-21T00:24:31;58.63;;;29.20;;
12597;SDS011;6364;53.590;9.956;2022-11-21T00:26:57;53.08;;;27.70;;
12597;SDS011;6364;53.590;9.956;2022-11-21T00:29:22;54.33;;;27.92;;
12597;SDS011;6364;53.590;9.956;2022-11-21T00:31:48;56.55;;;28.20;;
12597;SDS011;6364;53.590;9.956;2022-11-21T00:34:13;53.13;;;26.23;;
12597;SDS011;6364;53.590;9.956;2022-11-21T00:36:39;57.33;;;28.30;;
12597;SDS011;6364;53.590;9.956;2022-11-21T00:39:05;58.53;;;27.95;;
12597;SDS011;6364;53.590;9.956;2022-11-21T00:41:30;54.38;;;28.70;;
12597;SDS011;6364;53.590;9.956;2022-11-21T00:43:55;51.95;;;27.45;;
12597;SDS011;6364;53.590;9.956;2022-11-21T00:46:21;56.45;;;27.58;;
12597;SDS011;6364;53.590;9.956;2022-11-21T00:48:46;54.40;;;27.88;;
12597;SDS011;6364;53.590;9.956;2022-11-21T00:51:11;58.03;;;28.05;;
12597;SDS011;6364;53.590;9.956;2022-11-21T00:53:36;54.67;;;27.38;;
12597;SDS011;6364;53.590;9.956;2022-11-21T00:56:02;55.38;;;27.15;;
12597;SDS011;6364;53.590;9.956;2022-11-21T00:58:27;53.50;;;27.02;;
12597;SDS011;6364;53.590;9.956;2022-11-21T01:01:00;61.08;;;27.33;;
12597;SDS011;6364;53.590;9.956;2022-11-21T01:03:26;56.50;;;29.05;;
12597;SDS011;6364;53.590;9.956;2022-11-21T01:05:52;54.08;;;26.73;;
12597;SDS011;6364;53.590;9.956;2022-11-21T01:08:17;54.25;;;25.90;;
12597;SDS011;6364;53.590;9.956;2022-11-21T01:10:42;51.28;;;26.30;;
12597;SDS011;6364;53.590;9.956;2022-11-21T01:13:07;56.65;;;27.02;;
12597;SDS011;6364;53.590;9.956;2022-11-21T01:15:33;52.15;;;24.55;;
12597;SDS011;6364;53.590;9.956;2022-11-21T01:17:58;50.25;;;25.75;;
12597;SDS011;6364;53.590;9.956;2022-11-21T01:20:24;50.85;;;26.75;;
12597;SDS011;6364;53.590;9.956;2022-11-21T01:22:49;47.35;;;24.85;;
12597;SDS011;6364;53.590;9.956;2022-11-21T01:25:14;51.20;;;25.88;;
12597;SDS011;6364;53.590;9.956;2022-11-21T01:27:39;54.83;;;26.38;;
12597;SDS011;6364;53.590;9.956;2022-11-21T01:30:05;52.10;;;25.05;;
12597;SDS011;6364;53.590;9.956;2022-11-21T01:32:31;53.05;;;25.85;;
12597;SDS011;6364;53.590;9.956;2022-11-21T01:34:56;57.88;;;26.33;;
12597;SDS011;6364;53.590;9.956;2022-11-21T01:37:21;51.00;;;27.15;;
12597;SDS011;6364;53.590;9.956;2022-11-21T01:39:47;52.88;;;27.70;;
12597;SDS011;6364;53.590;9.956;2022-11-21T01:42:12;58.65;;;27.08;;
12597;SDS011;6364;53.590;9.956;2022-11-21T01:44:44;57.80;;;27.42;;
12597;SDS011;6364;53.590;9.956;2022-11-21T01:47:12;55.75;;;27.40;;
12597;SDS011;6364;53.590;9.956;2022-11-21T01:49:37;53.00;;;26.95;;
12597;SDS011;6364;53.590;9.956;2022-11-21T01:52:03;59.90;;;28.20;;
12597;SDS011;6364;53.590;9.956;2022-11-21T02:00:05;52.45;;;25.52;;
12597;SDS011;6364;53.590;9.956;2022-11-21T02:02:38;54.25;;;25.35;;
12597;SDS011;6364;53.590;9.956;2022-11-21T02:05:10;51.67;;;26.58;;
12597;SDS011;6364;53.590;9.956;2022-11-21T02:07:38;52.72;;;26.92;;
12597;SDS011;6364;53.590;9.956;2022-11-21T02:10:05;49.33;;;25.75;;
12597;SDS011;6364;53.590;9.956;2022-11-21T02:12:33;47.17;;;24.85;;
12597;SDS011;6364;53.590;9.956;2022-11-21T02:15:02;52.20;;;25.33;;
12597;SDS011;6364;53.590;9.956;2022-11-21T02:17:28;49.38;;;24.77;;
12597;SDS011;6364;53.590;9.956;2022-11-21T02:19:58;48.92;;;24.58;;
12597;SDS011;6364;53.590;9.956;2022-11-21T02:22:47;48.22;;;23.85;;
12597;SDS011;6364;53.590;9.956;2022-11-21T02:25:17;47.28;;;23.42;;
12597;SDS011;6364;53.590;9.956;2022-11-21T02:27:52;53.10;;;25.08;;
12597;SDS011;6364;53.590;9.956;2022-11-21T02:30:19;49.08;;;24.42;;
12597;SDS011;6364;53.590;9.956;2022-11-21T02:32:45;51.13;;;25.05;;
12597;SDS011;6364;53.590;9.956;2022-11-21T02:35:14;45.38;;;23.65;;
12597;SDS011;6364;53.590;9.956;2022-11-21T02:37:40;44.15;;;24.10;;
12597;SDS011;6364;53.590;9.956;2022-11-21T02:40:10;47.25;;;24.95;;
12597;SDS011;6364;53.590;9.956;2022-11-21T02:42:41;46.70;;;24.13;;
12597;SDS011;6364;53.590;9.956;2022-11-21T02:45:14;48.22;;;22.23;;
12597;SDS011;6364;53.590;9.956;2022-11-21T02:47:45;44.85;;;23.65;;
12597;SDS011;6364;53.590;9.956;2022-11-21T02:50:14;45.75;;;22.55;;
12597;SDS011;6364;53.590;9.956;2022-11-21T02:52:44;45.53;;;23.52;;
12597;SDS011;6364;53.590;9.956;2022-11-21T02:55:09;45.28;;;23.77;;
12597;SDS011;6364;53.590;9.956;2022-11-21T02:57:39;46.17;;;22.60;;
12597;SDS011;6364;53.590;9.956;2022-11-21T03:00:05;44.60;;;22.77;;
12597;SDS011;6364;53.590;9.956;2022-11-21T03:02:30;41.22;;;20.85;;
12597;SDS011;6364;53.590;9.956;2022-11-21T03:04:56;42.70;;;21.77;;
12597;SDS011;6364;53.590;9.956;2022-11-21T03:07:21;42.78;;;22.42;;
12597;SDS011;6364;53.590;9.956;2022-11-21T03:09:46;40.15;;;21.30;;
12597;SDS011;6364;53.590;9.956;2022-11-21T03:12:12;40.55;;;20.90;;
12597;SDS011;6364;53.590;9.956;2022-11-21T03:14:37;38.10;;;19.58;;
12597;SDS011;6364;53.590;9.956;2022-11-21T03:17:02;42.53;;;21.17;;
12597;SDS011;6364;53.590;9.956;2022-11-21T03:19:28;37.05;;;19.33;;
12597;SDS011;6364;53.590;9.956;2022-11-21T03:21:54;37.70;;;19.33;;
12597;SDS011;6364;53.590;9.956;2022-11-21T03:24:19;34.78;;;18.70;;
12597;SDS011;6364;53.590;9.956;2022-11-21T03:26:44;34.10;;;17.90;;
12597;SDS011;6364;53.590;9.956;2022-11-21T03:29:10;33.83;;;18.63;;
12597;SDS011;6364;53.590;9.956;2022-11-21T03:31:35;36.97;;;18.63;;
12597;SDS011;6364;53.590;9.956;2022-11-21T03:34:01;31.20;;;17.75;;
12597;SDS011;6364;53.590;9.956;2022-11-21T03:36:26;34.15;;;18.17;;
12597;SDS011;6364;53.590;9.956;2022-11-21T03:38:53;36.38;;;18.35;;
12597;SDS011;6364;53.590;9.956;2022-11-21T03:41:19;35.63;;;19.50;;
12597;SDS011;6364;53.590;9.956;2022-11-21T03:43:54;39.92;;;19.27;;
12597;SDS011;6364;53.590;9.956;2022-11-21T03:46:19;36.65;;;19.88;;
12597;SDS011;6364;53.590;9.956;2022-11-21T03:48:45;38.63;;;19.83;;
12597;SDS011;6364;53.590;9.956;2022-11-21T03:51:10;45.03;;;21.23;;
12597;SDS011;6364;53.590;9.956;2022-11-21T03:53:35;45.45;;;21.70;;
12597;SDS011;6364;53.590;9.956;2022-11-21T03:56:01;40.35;;;21.27;;
12597;SDS011;6364;53.590;9.956;2022-11-21T03:58:26;47.05;;;22.98;;
12597;SDS011;6364;53.590;9.956;2022-11-21T04:00:51;42.60;;;21.30;;
12597;SDS011;6364;53.590;9.956;2022-11-21T04:03:17;46.78;;;24.17;;
12597;SDS011;6364;53.590;9.956;2022-11-21T04:05:45;45.22;;;21.90;;
12597;SDS011;6364;53.590;9.956;2022-11-21T04:08:11;46.72;;;23.30;;
12597;SDS011;6364;53.590;9.956;2022-11-21T04:10:36;49.50;;;23.67;;
12597;SDS011;6364;53.590;9.956;2022-11-21T04:13:01;49.20;;;23.60;;
12597;SDS011;6364;53.590;9.956;2022-11-21T04:15:26;50.00;;;24.45;;
12597;SDS011;6364;53.590;9.956;2022-11-21T04:17:52;59.97;;;25.30;;
12597;SDS011;6364;53.590;9.956;2022-11-21T04:20:17;53.45;;;24.80;;
12597;SDS011;6364;53.590;9.956;2022-11-21T04:22:42;58.38;;;24.58;;
12597;SDS011;6364;53.590;9.956;2022-11-21T04:25:08;54.25;;;24.17;;
12597;SDS011;6364;53.590;9.956;2022-11-21T04:27:33;49.35;;;25.10;;
12597;SDS011;6364;53.590;9.956;2022-11-21T04:29:59;55.13;;;24.38;;
12597;SDS011;6364;53.590;9.956;2022-11-21T04:32:24;48.38;;;23.98;;
12597;SDS011;6364;53.590;9.956;2022-11-21T04:34:49;49.47;;;24.15;;
12597;SDS011;6364;53.590;9.956;2022-11-21T04:37:14;50.85;;;24.52;;
12597;SDS011;6364;53.590;9.956;2022-11-21T04:39:40;52.13;;;25.02;;
12597;SDS011;6364;53.590;9.956;2022-11-21T04:42:05;51.15;;;24.63;;
12597;SDS011;6364;53.590;9.956;2022-11-21T04:44:30;49.97;;;23.80;;
12597;SDS011;6364;53.590;9.956;2022-11-21T04:46:56;49.28;;;23.55;;
12597;SDS011;6364;53.590;9.956;2022-11-21T04:49:21;43.88;;;23.42;;
12597;SDS011;6364;53.590;9.956;2022-11-21T04:51:46;47.42;;;23.02;;
12597;SDS011;6364;53.590;9.956;2022-11-21T04:54:12;45.03;;;21.45;;
12597;SDS011;6364;53.590;9.956;2022-11-21T04:56:37;46.15;;;23.00;;
12597;SDS011;6364;53.590;9.956;2022-11-21T04:59:02;47.70;;;23.13;;
12597;SDS011;6364;53.590;9.956;2022-11-21T05:01:28;43.92;;;23.00;;
12597;SDS011;6364;53.590;9.956;2022-11-21T05:03:53;45.00;;;21.92;;
12597;SDS011;6364;53.590;9.956;2022-11-21T05:06:18;45.38;;;23.17;;
12597;SDS011;6364;53.590;9.956;2022-11-21T05:08:44;44.30;;;22.25;;
12597;SDS011;6364;53.590;9.956;2022-11-21T05:11:09;44.30;;;21.63;;
12597;SDS011;6364;53.590;9.956;2022-11-21T05:13:53;44.45;;;22.02;;
12597;SDS011;6364;53.590;9.956;2022-11-21T05:16:19;45.42;;;22.33;;
12597;SDS011;6364;53.590;9.956;2022-11-21T05:18:44;41.70;;;22.15;;
12597;SDS011;6364;53.590;9.956;2022-11-21T05:21:09;45.25;;;21.40;;
12597;SDS011;6364;53.590;9.956;2022-11-21T05:23:35;42.85;;;22.45;;
12597;SDS011;6364;53.590;9.956;2022-11-21T05:26:00;44.33;;;22.45;;
12597;SDS011;6364;53.590;9.956;2022-11-21T05:28:25;50.33;;;23.95;;
12597;SDS011;6364;53.590;9.956;2022-11-21T05:30:51;43.40;;;22.55;;
12597;SDS011;6364;53.590;9.956;2022-11-21T05:33:16;49.15;;;23.38;;
12597;SDS011;6364;53.590;9.956;2022-11-21T05:35:41;44.38;;;24.20;;
12597;SDS011;6364;53.590;9.956;2022-11-21T05:38:06;55.08;;;24.67;;
12597;SDS011;6364;53.590;9.956;2022-11-21T05:40:32;47.05;;;23.33;;
12597;SDS011;6364;53.590;9.956;2022-11-21T05:42:57;54.08;;;26.52;;
12597;SDS011;6364;53.590;9.956;2022-11-21T05:45:41;46.08;;;23.00;;
12597;SDS011;6364;53.590;9.956;2022-11-21T05:48:06;48.08;;;23.58;;
12597;SDS011;6364;53.590;9.956;2022-11-21T05:50:34;49.97;;;23.27;;
12597;SDS011;6364;53.590;9.956;2022-11-21T05:53:00;49.10;;;22.30;;
12597;SDS011;6364;53.590;9.956;2022-11-21T05:55:28;44.97;;;22.67;;
12597;SDS011;6364;53.590;9.956;2022-11-21T05:57:56;46.67;;;22.60;;
12597;SDS011;6364;53.590;9.956;2022-11-21T06:00:22;49.42;;;22.42;;
12597;SDS011;6364;53.590;9.956;2022-11-21T06:02:48;53.33;;;23.48;;
12597;SDS011;6364;53.590;9.956;2022-11-21T06:05:32;46.60;;;23.10;;
12597;SDS011;6364;53.590;9.956;2022-11-21T06:07:57;51.35;;;24.05;;
12597;SDS011;6364;53.590;9.956;2022-11-21T06:10:22;52.88;;;24.02;;
12597;SDS011;6364;53.590;9.956;2022-11-21T06:12:48;59.92;;;25.92;;
12597;SDS011;6364;53.590;9.956;2022-11-21T06:15:13;53.65;;;23.73;;
12597;SDS011;6364;53.590;9.956;2022-11-21T06:17:38;55.75;;;24.60;;
12597;SDS011;6364;53.590;9.956;2022-11-21T06:20:04;56.88;;;25.20;;
12597;SDS011;6364;53.590;9.956;2022-11-21T06:22:29;54.65;;;24.33;;
12597;SDS011;6364;53.590;9.956;2022-11-21T06:24:55;51.75;;;25.90;;
12597;SDS011;6364;53.590;9.956;2022-11-21T06:27:20;50.40;;;24.10;;
12597;SDS011;6364;53.590;9.956;2022-11-21T06:29:45;45.15;;;24.15;;
12597;SDS011;6364;53.590;9.956;2022-11-21T06:32:10;49.13;;;25.02;;
12597;SDS011;6364;53.590;9.956;2022-11-21T06:34:36;55.78;;;25.65;;
12597;SDS011;6364;53.590;9.956;2022-11-21T06:37:01;54.75;;;24.40;;
12597;SDS011;6364;53.590;9.956;2022-11-21T06:39:27;56.65;;;25.60;;
12597;SDS011;6364;53.590;9.956;2022-11-21T06:41:52;58.75;;;25.30;;
12597;SDS011;6364;53.590;9.956;2022-11-21T06:44:17;51.78;;;24.85;;
12597;SDS011;6364;53.590;9.956;2022-11-21T06:46:43;53.08;;;23.80;;
12597;SDS011;6364;53.590;9.956;2022-11-21T06:49:08;50.72;;;24.20;;
12597;SDS011;6364;53.590;9.956;2022-11-21T06:51:34;46.25;;;23.23;;
12597;SDS011;6364;53.590;9.956;2022-11-21T06:53:59;51.95;;;24.08;;
12597;SDS011;6364;53.590;9.956;2022-11-21T06:56:25;55.55;;;26.50;;
12597;SDS011;6364;53.590;9.956;2022-11-21T06:58:52;52.78;;;25.25;;
12597;SDS011;6364;53.590;9.956;2022-11-21T07:01:17;52.17;;;26.55;;
12597;SDS011;6364;53.590;9.956;2022-11-21T07:03:43;49.55;;;26.10;;
12597;SDS011;6364;53.590;9.956;2022-11-21T07:06:08;53.60;;;25.77;;
12597;SDS011;6364;53.590;9.956;2022-11-21T07:08:35;52.28;;;24.58;;
12597;SDS011;6364;53.590;9.956;2022-11-21T07:11:04;55.38;;;24.42;;
12597;SDS011;6364;53.590;9.956;2022-11-21T07:13:31;52.30;;;24.60;;
12597;SDS011;6364;53.590;9.956;2022-11-21T07:16:07;54.25;;;25.10;;
12597;SDS011;6364;53.590;9.956;2022-11-21T07:18:33;49.00;;;23.63;;
12597;SDS011;6364;53.590;9.956;2022-11-21T07:20:59;49.50;;;23.55;;
12597;SDS011;6364;53.590;9.956;2022-11-21T07:23:25;47.05;;;23.08;;
12597;SDS011;6364;53.590;9.956;2022-11-21T07:25:51;49.95;;;23.17;;
12597;SDS011;6364;53.590;9.956;2022-11-21T07:28:16;48.15;;;24.17;;
12597;SDS011;6364;53.590;9.956;2022-11-21T07:30:41;51.50;;;24.88;;
12597;SDS011;6364;53.590;9.956;2022-11-21T07:33:07;48.55;;;23.42;;
12597;SDS011;6364;53.590;9.956;2022-11-21T07:35:33;53.10;;;25.73;;
12597;SDS011;6364;53.590;9.956;2022-11-21T07:37:59;51.67;;;23.98;;
12597;SDS011;6364;53.590;9.956;2022-11-21T07:40:25;46.28;;;23.98;;
12597;SDS011;6364;53.590;9.956;2022-11-21T07:42:51;52.13;;;24.77;;
12597;SDS011;6364;53.590;9.956;2022-11-21T07:45:16;51.10;;;23.63;;
12597;SDS011;6364;53.590;9.956;2022-11-21T07:47:41;53.92;;;24.40;;
12597;SDS011;6364;53.590;9.956;2022-11-21T07:50:07;52.90;;;25.05;;
12597;SDS011;6364;53.590;9.956;2022-11-21T07:52:33;46.72;;;24.33;;
12597;SDS011;6364;53.590;9.956;2022-11-21T07:54:59;48.63;;;24.10;;
12597;SDS011;6364;53.590;9.956;2022-11-21T07:57:27;48.35;;;23.40;;
12597;SDS011;6364;53.590;9.956;2022-11-21T07:59:52;46.05;;;23.35;;
12597;SDS011;6364;53.590;9.956;2022-11-21T08:02:18;49.40;;;22.90;;
12597;SDS011;6364;53.590;9.956;2022-11-21T08:04:44;49.05;;;23.75;;
12597;SDS011;6364;53.590;9.956;2022-11-21T08:07:09;50.47;;;24.73;;
12597;SDS011;6364;53.590;9.956;2022-11-21T08:09:34;48.28;;;24.23;;
12597;SDS011;6364;53.590;9.956;2022-11-21T08:12:00;54.38;;;25.13;;
12597;SDS011;6364;53.590;9.956;2022-11-21T08:14:25;49.63;;;24.60;;
12597;SDS011;6364;53.590;9.956;2022-11-21T08:16:51;51.28;;;25.52;;
12597;SDS011;6364;53.590;9.956;2022-11-21T08:19:17;48.90;;;24.02;;
12597;SDS011;6364;53.590;9.956;2022-11-21T08:21:42;49.05;;;24.13;;
12597;SDS011;6364;53.590;9.956;2022-11-21T08:24:07;50.35;;;24.30;;
12597;SDS011;6364;53.590;9.956;2022-11-21T08:26:37;48.88;;;22.85;;
12597;SDS011;6364;53.590;9.956;2022-11-21T08:29:02;47.53;;;22.80;;
12597;SDS011;6364;53.590;9.956;2022-11-21T08:31:28;45.65;;;22.38;;
12597;SDS011;6364;53.590;9.956;2022-11-21T08:33:59;47.13;;;23.05;;
12597;SDS011;6364;53.590;9.956;2022-11-21T08:36:24;50.03;;;24.08;;
12597;SDS011;6364;53.590;9.956;2022-11-21T08:38:50;44.83;;;22.77;;
12597;SDS011;6364;53.590;9.956;2022-11-21T08:41:15;44.15;;;22.60;;
12597;SDS011;6364;53.590;9.956;2022-11-21T08:43:59;42.38;;;22.42;;
12597;SDS011;6364;53.590;9.956;2022-11-21T08:46:24;49.97;;;23.73;;
12597;SDS011;6364;53.590;9.956;2022-11-21T08:48:54;48.30;;;23.15;;
12597;SDS011;6364;53.590;9.956;2022-11-21T08:51:20;47.75;;;24.40;;
12597;SDS011;6364;53.590;9.956;2022-11-21T08:53:46;44.38;;;22.45;;
12597;SDS011;6364;53.590;9.956;2022-11-21T08:56:11;46.38;;;22.77;;
12597;SDS011;6364;53.590;9.956;2022-11-21T08:58:36;44.03;;;23.45;;
12597;SDS011;6364;53.590;9.956;2022-11-21T09:01:02;47.25;;;23.58;;
12597;SDS011;6364;53.590;9.956;2022-11-21T09:03:27;46.05;;;23.75;;
12597;SDS011;6364;53.590;9.956;2022-11-21T09:05:54;46.15;;;22.83;;
12597;SDS011;6364;53.590;9.956;2022-11-21T09:08:23;48.90;;;23.92;;
12597;SDS011;6364;53.590;9.956;2022-11-21T09:10:48;46.33;;;22.90;;
12597;SDS011;6364;53.590;9.956;2022-11-21T09:13:14;47.22;;;24.33;;
12597;SDS011;6364;53.590;9.956;2022-11-21T09:15:39;45.40;;;23.05;;
12597;SDS011;6364;53.590;9.956;2022-11-21T09:18:25;42.13;;;22.63;;
12597;SDS011;6364;53.590;9.956;2022-11-21T09:20:50;47.15;;;22.85;;
12597;SDS011;6364;53.590;9.956;2022-11-21T09:23:16;48.75;;;23.98;;
12597;SDS011;6364;53.590;9.956;2022-11-21T09:25:41;49.92;;;24.13;;
12597;SDS011;6364;53.590;9.956;2022-11-21T09:28:08;44.65;;;22.63;;
12597;SDS011;6364;53.590;9.956;2022-11-21T09:30:34;44.92;;;23.05;;
12597;SDS011;6364;53.590;9.956;2022-11-21T09:33:02;47.42;;;23.77;;
12597;SDS011;6364;53.590;9.956;2022-11-21T09:35:28;47.42;;;24.75;;
12597;SDS011;6364;53.590;9.956;2022-11-21T09:37:54;45.95;;;24.75;;
12597;SDS011;6364;53.590;9.956;2022-11-21T09:40:19;45.50;;;23.98;;
12597;SDS011;6364;53.590;9.956;2022-11-21T09:45:49;44.17;;;23.80;;
12597;SDS011;6364;53.590;9.956;2022-11-21T09:48:21;39.65;;;21.58;;
12597;SDS011;6364;53.590;9.956;2022-11-21T09:50:53;39.05;;;22.42;;
12597;SDS011;6364;53.590;9.956;2022-11-21T09:53:23;36.90;;;21.95;;
12597;SDS011;6364;53.590;9.956;2022-11-21T09:55:54;36.38;;;21.70;;
12597;SDS011;6364;53.590;9.956;2022-11-21T09:58:24;34.35;;;19.63;;
12597;SDS011;6364;53.590;9.956;2022-11-21T10:00:54;36.75;;;19.85;;
12597;SDS011;6364;53.590;9.956;2022-11-21T10:03:20;36.38;;;19.88;;
12597;SDS011;6364;53.590;9.956;2022-11-21T10:05:54;32.72;;;19.42;;
12597;SDS011;6364;53.590;9.956;2022-11-21T10:08:26;28.17;;;16.52;;
12597;SDS011;6364;53.590;9.956;2022-11-21T10:13:52;28.83;;;16.52;;
12597;SDS011;6364;53.590;9.956;2022-11-21T10:16:28;32.28;;;15.50;;
12597;SDS011;6364;53.590;9.956;2022-11-21T10:26:51;28.95;;;14.52;;
12597;SDS011;6364;53.590;9.956;2022-11-21T10:31:49;27.25;;;15.50;;
12597;SDS011;6364;53.590;9.956;2022-11-21T10:34:17;23.75;;;13.95;;
12597;SDS011;6364;53.590;9.956;2022-11-21T10:36:49;26.17;;;13.93;;
12597;SDS011;6364;53.590;9.956;2022-11-21T10:39:19;24.35;;;14.10;;
12597;SDS011;6364;53.590;9.956;2022-11-21T10:41:55;24.48;;;14.48;;
12597;SDS011;6364;53.590;9.956;2022-11-21T10:44:28;22.88;;;14.07;;
12597;SDS011;6364;53.590;9.956;2022-11-21T10:47:13;25.15;;;14.98;;
12597;SDS011;6364;53.590;9.956;2022-11-21T10:49:40;27.55;;;14.40;;
12597;SDS011;6364;53.590;9.956;2022-11-21T10:52:08;25.17;;;14.63;;
12597;SDS011;6364;53.590;9.956;2022-11-21T10:55:17;30.27;;;14.95;;
12597;SDS011;6364;53.590;9.956;2022-11-21T10:57:26;27.50;;;15.38;;
12597;SDS011;6364;53.590;9.956;2022-11-21T10:59:56;26.23;;;13.85;;
12597;SDS011;6364;53.590;9.956;2022-11-21T11:02:39;22.05;;;13.23;;
12597;SDS011;6364;53.590;9.956;2022-11-21T11:07:39;25.77;;;13.35;;
12597;SDS011;6364;53.590;9.956;2022-11-21T11:10:17;24.63;;;14.70;;
12597;SDS011;6364;53.590;9.956;2022-11-21T11:12:47;24.20;;;13.48;;
12597;SDS011;6364;53.590;9.956;2022-11-21T11:15:31;23.35;;;13.23;;
12597;SDS011;6364;53.590;9.956;2022-11-21T11:17:58;22.08;;;12.38;;
12597;SDS011;6364;53.590;9.956;2022-11-21T11:20:30;21.77;;;12.05;;
12597;SDS011;6364;53.590;9.956;2022-11-21T11:23:13;21.98;;;12.48;;
12597;SDS011;6364;53.590;9.956;2022-11-21T11:25:45;20.85;;;11.45;;
12597;SDS011;6364;53.590;9.956;2022-11-21T11:28:12;21.17;;;12.50;;
12597;SDS011;6364;53.590;9.956;2022-11-21T11:30:37;21.88;;;13.18;;
12597;SDS011;6364;53.590;9.956;2022-11-21T11:33:04;20.83;;;11.68;;
12597;SDS011;6364;53.590;9.956;2022-11-21T11:35:33;22.20;;;11.95;;
12597;SDS011;6364;53.590;9.956;2022-11-21T11:37:59;19.70;;;12.10;;
12597;SDS011;6364;53.590;9.956;2022-11-21T11:42:57;18.73;;;11.07;;
12597;SDS011;6364;53.590;9.956;2022-11-21T11:48:58;19.38;;;11.63;;
12597;SDS011;6364;53.590;9.956;2022-11-21T11:51:29;18.60;;;11.32;;
12597;SDS011;6364;53.590;9.956;2022-11-21T11:54:05;18.77;;;11.10;;
12597;SDS011;6364;53.590;9.956;2022-11-21T11:59:02;23.05;;;10.27;;
12597;SDS011;6364;53.590;9.956;2022-11-21T12:02:28;18.33;;;10.20;;
12597;SDS011;6364;53.590;9.956;2022-11-21T12:04:38;18.08;;;11.00;;
12597;SDS011;6364;53.590;9.956;2022-11-21T12:07:24;17.95;;;10.27;;
12597;SDS011;6364;53.590;9.956;2022-11-21T12:09:58;15.45;;;10.00;;
12597;SDS011;6364;53.590;9.956;2022-11-21T12:12:34;14.23;;;9.23;;
12597;SDS011;6364;53.590;9.956;2022-11-21T12:15:02;15.23;;;9.20;;
12597;SDS011;6364;53.590;9.956;2022-11-21T12:23:32;13.32;;;8.38;;
12597;SDS011;6364;53.590;9.956;2022-11-21T12:34:30;10.68;;;7.50;;
12597;SDS011;6364;53.590;9.956;2022-11-21T12:48:09;9.48;;;5.93;;
12597;SDS011;6364;53.590;9.956;2022-11-21T12:57:02;9.05;;;5.40;;
12597;SDS011;6364;53.590;9.956;2022-11-21T13:02:37;9.30;;;5.68;;
12597;SDS011;6364;53.590;9.956;2022-11-21T13:05:16;8.32;;;5.78;;
12597;SDS011;6364;53.590;9.956;2022-11-21T13:07:45;9.00;;;5.45;;
12597;SDS011;6364;53.590;9.956;2022-11-21T13:10:12;9.02;;;5.57;;
12597;SDS011;6364;53.590;9.956;2022-11-21T13:12:44;9.60;;;5.60;;
12597;SDS011;6364;53.590;9.956;2022-11-21T13:15:18;9.70;;;5.60;;
12597;SDS011;6364;53.590;9.956;2022-11-21T13:17:52;12.00;;;6.28;;
12597;SDS011;6364;53.590;9.956;2022-11-21T13:22:53;12.35;;;6.07;;
12597;SDS011;6364;53.590;9.956;2022-11-21T13:27:54;10.00;;;5.88;;
12597;SDS011;6364;53.590;9.956;2022-11-21T13:30:21;9.77;;;5.75;;
12597;SDS011;6364;53.590;9.956;2022-11-21T13:32:51;11.98;;;7.13;;
12597;SDS011;6364;53.590;9.956;2022-11-21T13:45:41;12.20;;;4.93;;
12597;SDS011;6364;53.590;9.956;2022-11-21T14:01:45;11.52;;;6.53;;
12597;SDS011;6364;53.590;9.956;2022-11-21T14:04:37;11.15;;;6.53;;
12597;SDS011;6364;53.590;9.956;2022-11-21T14:07:20;10.18;;;6.55;;
12597;SDS011;6364;53.590;9.956;2022-11-21T14:14:47;12.18;;;7.28;;
12597;SDS011;6364;53.590;9.956;2022-11-21T14:20:11;14.43;;;7.45;;
12597;SDS011;6364;53.590;9.956;2022-11-21T14:25:18;17.60;;;8.10;;
12597;SDS011;6364;53.590;9.956;2022-11-21T14:27:45;16.85;;;8.80;;
12597;SDS011;6364;53.590;9.956;2022-11-21T14:30:35;15.05;;;8.68;;
12597;SDS011;6364;53.590;9.956;2022-11-21T14:35:47;15.35;;;8.57;;
12597;SDS011;6364;53.590;9.956;2022-11-21T14:38:14;15.73;;;8.70;;
12597;SDS011;6364;53.590;9.956;2022-11-21T14:40:39;12.00;;;7.82;;
12597;SDS011;6364;53.590;9.956;2022-11-21T14:45:56;13.98;;;7.78;;
12597;SDS011;6364;53.590;9.956;2022-11-21T14:48:28;15.48;;;8.60;;
12597;SDS011;6364;53.590;9.956;2022-11-21T14:50:57;15.10;;;8.70;;
12597;SDS011;6364;53.590;9.956;2022-11-21T14:53:24;17.15;;;8.50;;
12597;SDS011;6364;53.590;9.956;2022-11-21T14:55:49;13.75;;;8.45;;
12597;SDS011;6364;53.590;9.956;2022-11-21T14:58:16;16.05;;;9.25;;
12597;SDS011;6364;53.590;9.956;2022-11-21T15:00:43;12.80;;;8.77;;
12597;SDS011;6364;53.590;9.956;2022-11-21T15:03:26;15.90;;;9.40;;
12597;SDS011;6364;53.590;9.956;2022-11-21T15:06:01;21.45;;;9.95;;
12597;SDS011;6364;53.590;9.956;2022-11-21T15:08:28;16.85;;;9.63;;
12597;SDS011;6364;53.590;9.956;2022-11-21T15:10:54;16.42;;;9.00;;
12597;SDS011;6364;53.590;9.956;2022-11-21T15:13:22;16.92;;;9.55;;
12597;SDS011;6364;53.590;9.956;2022-11-21T15:15:50;15.82;;;9.27;;
12597;SDS011;6364;53.590;9.956;2022-11-21T15:18:24;14.70;;;8.35;;
12597;SDS011;6364;53.590;9.956;2022-11-21T15:20:52;15.85;;;9.00;;
12597;SDS011;6364;53.590;9.956;2022-11-21T15:23:25;13.80;;;7.97;;
12597;SDS011;6364;53.590;9.956;2022-11-21T15:25:51;14.63;;;8.13;;
12597;SDS011;6364;53.590;9.956;2022-11-21T15:28:17;13.20;;;8.00;;
12597;SDS011;6364;53.590;9.956;2022-11-21T15:30:43;16.15;;;8.98;;
12597;SDS011;6364;53.590;9.956;2022-11-21T15:35:48;13.32;;;8.10;;
12597;SDS011;6364;53.590;9.956;2022-11-21T15:38:28;13.23;;;8.35;;
12597;SDS011;6364;53.590;9.956;2022-11-21T15:46:11;15.63;;;8.65;;
12597;SDS011;6364;53.590;9.956;2022-11-21T15:48:43;14.43;;;8.68;;
12597;SDS011;6364;53.590;9.956;2022-11-21T15:51:10;17.48;;;9.10;;
12597;SDS011;6364;53.590;9.956;2022-11-21T15:53:35;15.75;;;9.05;;
12597;SDS011;6364;53.590;9.956;2022-11-21T15:56:01;14.77;;;9.23;;
12597;SDS011;6364;53.590;9.956;2022-11-21T15:58:26;15.30;;;8.90;;
12597;SDS011;6364;53.590;9.956;2022-11-21T16:00:52;15.50;;;9.00;;
12597;SDS011;6364;53.590;9.956;2022-11-21T16:03:17;14.98;;;8.48;;
12597;SDS011;6364;53.590;9.956;2022-11-21T16:05:42;16.05;;;8.05;;
12597;SDS011;6364;53.590;9.956;2022-11-21T16:08:08;14.07;;;8.02;;
12597;SDS011;6364;53.590;9.956;2022-11-21T16:10:33;12.57;;;7.95;;
12597;SDS011;6364;53.590;9.956;2022-11-21T16:13:00;15.25;;;8.13;;
12597;SDS011;6364;53.590;9.956;2022-11-21T16:15:25;12.85;;;7.72;;
12597;SDS011;6364;53.590;9.956;2022-11-21T16:17:50;14.70;;;7.80;;
12597;SDS011;6364;53.590;9.956;2022-11-21T16:20:16;12.43;;;7.63;;
12597;SDS011;6364;53.590;9.956;2022-11-21T16:22:41;15.85;;;7.85;;
12597;SDS011;6364;53.590;9.956;2022-11-21T16:25:08;12.65;;;7.90;;
12597;SDS011;6364;53.590;9.956;2022-11-21T16:27:33;10.30;;;6.68;;
12597;SDS011;6364;53.590;9.956;2022-11-21T16:29:59;13.38;;;7.60;;
12597;SDS011;6364;53.590;9.956;2022-11-21T16:32:24;14.70;;;8.13;;
12597;SDS011;6364;53.590;9.956;2022-11-21T16:34:50;13.45;;;7.68;;
12597;SDS011;6364;53.590;9.956;2022-11-21T16:37:15;12.63;;;7.78;;
12597;SDS011;6364;53.590;9.956;2022-11-21T16:39:41;14.85;;;8.23;;
12597;SDS011;6364;53.590;9.956;2022-11-21T16:42:08;16.35;;;8.45;;